Tiempo atmosférico en la estación meteorológica de Écija, Sevilla (130 m.)



Fecha
DESCASC
Temp. máxima en grados centígrados (hora)
DESCASC
Temp. mínima en grados centígrados (hora)
DESCASC
Temp. media en grados centígrados
DESCASC
Racha de viento máxima en m/sg (hora)
DESCASC
Velocidad máxima media en intervalos de 10 minutos(hora)
DESCASC
Precipitaciones diarias en mm
DESCASC
Precipitaciones de 00:00 a 06:00 en mm
DESCASC
Precipitaciones de 06:00 a 12:00 en mm
DESCASC
Precipitaciones de 12:00 a 18:00 en mm
DESCASC
Precipitaciones de 18:00 a 24:00 en mm
DESCASC
18-02-2018 19.1 (17:00) 3.2 (06:50) 11.2 4.72 (14:50) 3.06 (15:00) 0 0 0 0 0
17-02-2018 17.5 (16:50) 4.4 (06:20) 11 6.11 (00:50) 5 (00:50) 0 0 0 0 0
16-02-2018 21.5 (16:40) 3 (08:30) 12.3 6.94 (21:50) 4.44 (21:50) 0 0 0 0 0
15-02-2018 19 (16:30) 1.7 (00:00) 10.4 7.5 (13:10) 4.72 (13:10) 0 0 0 0 0
14-02-2018 16 (17:10) -0.6 (-00:0) 7.7 4.72 (18:20) 3.06 (20:20) 0 0 0 0 0
13-02-2018 14.8 (16:20) -0.9 (-00:0) 7 7.22 (15:10) 4.17 (13:40) 0 0 0 0 0
12-02-2018 16.5 (16:40) 5.4 (00:00) 11 9.17 (10:20) 6.39 (10:30) 0.3 0 0.1 0.2 0
11-02-2018 16.8 (16:10) -1.3 (-00:0) 7.7 8.89 (21:10) 6.67 (21:10) 0 0 0 0 0
10-02-2018 14.7 (16:20) 0.4 (00:00) 7.5 7.22 (15:00) 5 (21:20) 0 0 0 0 0
09-02-2018 13.1 (15:50) -3.5 (-00:0) 4.8 6.11 (19:30) 4.17 (22:10) 0 0 0 0 0
08-02-2018 13.2 (16:40) -0.2 (00:00) 6.5 7.5 (12:20) 5 (11:30) 0 0 0 0 0
07-02-2018 11.2 (16:10) 2.4 (00:00) 6.8 11.39 (13:00) 8.06 (11:10) 0 0 0 0 0
06-02-2018 11.2 (17:00) 0.5 (00:00) 5.8 7.22 (13:40) 3.06 (13:40) 0 0 0 0 0
05-02-2018 10.2 (16:30) -1.4 (-00:0) 4.4 7.78 (13:30) 4.72 (13:10) 0.6 0 0.6 0 0
04-02-2018 11.2 (16:40) 2.9 (00:00) 7 9.44 (04:30) 6.39 (06:10) 0.9 0.9 0 0 0
03-02-2018 13.8 (16:40) -3.2 (-00:0) 5.3 7.78 (22:40) 5.83 (22:40) 0 0 0 0 0
02-02-2018 13.4 (15:50) 2.4 (00:00) 7.9 10.56 (15:50) 6.39 (00:30) 0 0 0 0 0
01-02-2018 16 (16:10) 4.4 (00:00) 10.2 13.61 (15:00) 8.89 (15:00) 0 0 0 0 0
31-01-2018 16.3 (16:00) 6.5 (00:00) 11.4 5.56 (20:40) 3.89 (19:30) 0 0 0 0 0
30-01-2018 16.2 (16:50) 5.6 (00:00) 10.9 6.11 (08:50) 3.61 (07:30) 0 0 0 0 0
29-01-2018 -- (--) -- (--) -- -- (--) -- (--) -- -- -- 0 0
28-01-2018 -- (--) -- (--) -- -- (--) -- (--) -- 0 0 -- --
27-01-2018 13.5 (13:50) -0.9 (-00:0) 6.3 9.44 (13:30) 6.11 (14:30) 0 0 0 0 0
26-01-2018 13.2 (16:30) 3.2 (00:00) 8.2 6.94 (17:40) 5 (17:40) 0 0 0 0 0
25-01-2018 15.6 (14:30) 7.3 (00:00) 11.5 13.61 (14:10) 7.5 (16:20) 2.2 0 0 0 2.2
24-01-2018 20.7 (17:00) 2 (00:00) 11.4 5.28 (21:00) 4.17 (20:20) 0 0 0 0 0
23-01-2018 19.6 (16:50) 1.8 (00:00) 10.7 4.72 (16:20) 3.33 (20:10) 0 0 0 0 0
22-01-2018 18.7 (16:50) 2.1 (00:00) 10.4 3.89 (14:30) 3.06 (23:50) 0.1 0 0.1 0 0

Gráficas

Temp. máximas Temp. mínimas Temp. medias Precipitaciones Rachas de viento máximas Velocidades máximas media en intervalos de 10 minutos

Datos horarios

Fecha y hora oficial Temperatura (ºC) Velocidad del viento (km/h) Dirección del viento Racha (km/h) Dirección de racha Precipitación (mm) Presión (hPa) Tendencia (hPa) Humedad (%)
2018-02-20 23:00:00 8.9 0 Calma 6 Oeste 0 999.1 0 65
2018-02-20 22:00:00 10.2 5 Sudeste 10 Sudoeste 0 999.1 0.2 60
2018-02-20 21:00:00 12.9 0 Calma 6 Oeste 0 999.1 0.3 48
2018-02-20 20:00:00 14.8 4 Noroeste 6 Noroeste 0 999.1 0 42
2018-02-20 19:00:00 17.4 3 Noroeste 10 Este 0 998.9 -0.9 38
2018-02-20 18:00:00 19.5 5 Este 13 Este 0 998.8 -1.8 37
2018-02-20 17:00:00 20.4 3 Noroeste 14 Norte 0 999.1 -2.6 36
2018-02-20 16:00:00 19.9 6 Norte 26 Nordeste 0 999.8 -2.6 36
2018-02-20 15:00:00 19 13 Este 23 Este 0 1000.6 -2.5 40
2018-02-20 14:00:00 18.2 10 Nordeste 25 Nordeste 0 1001.7 -1.8 42
2018-02-20 13:00:00 16.8 14 Nordeste 27 Nordeste 0 1002.4 -1.4 45
2018-02-20 12:00:00 15.6 10 Nordeste 18 Nordeste 0 1003.1 -0.5 51
2018-02-20 11:00:00 11.3 5 Nordeste 10 Nordeste 0 1003.5 0.5 65
2018-02-20 10:00:00 8 0 Calma 4 Este 0 1003.8 1.2 77
2018-02-20 09:00:00 4.4 0 Calma 3 Sudeste 0 1003.6 1.1 90
2018-02-20 08:00:00 2.3 3 Sur 4 Sur 0 1003 0.7 92
2018-02-20 07:00:00 2.7 0 Calma 5 Sur 0 1002.6 0.1 92
2018-02-20 06:00:00 3.3 0 Calma 4 Sur 0 1002.5 -0.1 89
2018-02-20 05:00:00 3.5 3 Sur 6 Sur 0 1002.3 -0.2 87
2018-02-20 04:00:00 3.3 5 Sur 8 Sur 0 1002.5 -0.3 85
2018-02-20 03:00:00 4 0 Calma 5 Sudeste 0 1002.6 0.1 80
2018-02-20 02:00:00 4.9 0 Calma 3 Sur 0 1002.5 0 76
2018-02-20 01:00:00 5.8 2 Sur 4 Este 0 1002.8 0.5 72
2018-02-20 00:00:00 6.4 0 Calma 3 Sudoeste 0 1002.5 0.4 65
2018-02-19 23:00:00 7.9 0 Calma 5 Nordeste 0 1002.5 0.7 58
2018-02-19 22:00:00 10.2 2 Oeste 5 Nordeste 0 1002.3 0.9 50
2018-02-19 21:00:00 11.1 2 Norte 4 Noroeste 0 1002.1 1 45
2018-02-19 20:00:00 12.9 0 Calma 6 Noroeste 0 1001.8 0.7 42
2018-02-19 19:00:00 15.2 3 Nordeste 19 Nordeste 0 1001.4 -0.1 41
2018-02-19 18:00:00 16.8 14 Este 24 Este 0 1001.1 -0.8 39
2018-02-19 17:00:00 17.6 14 Este 25 Este 0 1001.1 -1.7 38
2018-02-19 16:00:00 17.7 13 Nordeste 26 Nordeste 0 1001.5 -2.1 38
2018-02-19 15:00:00 16.8 13 Este 28 Este 0 1001.9 -2.3 40
2018-02-19 14:00:00 15.9 13 Este 23 Este 0 1002.8 -1.6 42
2018-02-19 13:00:00 14 9 Nordeste 16 Nordeste 0 1003.6 -0.5 44
2018-02-19 12:00:00 10.6 0 Calma 6 Norte 0 1004.2 0.3 61
2018-02-19 11:00:00 8.6 3 Norte 6 Norte 0 1004.4 0.9 72
2018-02-19 10:00:00 4.9 0 Calma 4 Este 0 1004.1 1 97
2018-02-19 09:00:00 3.5 0 Calma 3 Sur 0 1003.9 0.9 97
2018-02-19 08:00:00 2.7 0 Calma 4 Sudeste 0 1003.5 0.4 95
2018-02-19 07:00:00 3.4 0 Calma 2 Sur 0 1003.1 0.2 92
2018-02-19 06:00:00 4.1 0 Calma 3 Norte 0 1003 -0.1 86
2018-02-19 05:00:00 5 0 Calma 5 Norte 0 1003.1 -0.5 85
2018-02-19 04:00:00 5.5 4 Norte 8 Norte 0 1002.9 -1.2 88
2018-02-19 03:00:00 6.1 4 Noroeste 8 Norte 0 1003.1 -0.9 86
2018-02-19 02:00:00 7.2 4 Sudoeste 6 Sudoeste 0 1003.6 -0.5 85
2018-02-19 01:00:00 7.7 0 Calma 13 Nordeste 0 1004.1 0.1 81
2018-02-19 00:00:00 9.3 4 Oeste 8 Norte 0 1004 0.3 75
2018-02-18 23:00:00 9.3 0 Calma 10 Sur 0 1004.1 0.2 74
2018-02-18 22:00:00 10.4 2 Noroeste 7 Sudoeste 0 1004 0.6 65
2018-02-18 21:00:00 12.2 0 Calma 6 Noroeste 0 1003.7 0.5 55
2018-02-18 20:00:00 13.3 6 Noroeste 8 Noroeste 0 1003.9 0.8 51
2018-02-18 19:00:00 15.7 0 Calma 8 Norte 0 1003.4 -0.2 46
2018-02-18 18:00:00 18.1 4 Nordeste 13 Nordeste 0 1003.2 -0.9 42
2018-02-18 17:00:00 18.8 4 Nordeste 13 Noroeste 0 1003.1 -1.7 41
2018-02-18 16:00:00 18.6 6 Nordeste 15 Norte 0 1003.6 -2.2 43
2018-02-18 15:00:00 18.3 11 Norte 17 Norte 0 1004.1 -2.2 45
2018-02-18 14:00:00 17.9 5 Norte 17 Este 0 1004.8 -2.2 49
2018-02-18 13:00:00 16.7 7 Este 14 Este 0 1005.8 -1.3 56
2018-02-18 12:00:00 14 5 Este 14 Sudeste 0 1006.3 -0.4 76
2018-02-18 11:00:00 9 3 Nordeste 6 Este 0 1007 0.6 99
2018-02-18 10:00:00 5.1 0 Calma 6 Sudeste 0 1007.1 0.7 99
2018-02-18 09:00:00 3.6 3 Sudeste 5 Sur 0 1006.7 0.2 99
2018-02-18 08:00:00 3.4 0 Calma 3 Sur 0 1006.4 -0.1 99
2018-02-18 07:00:00 3.4 0 Calma 2 Norte 0 1006.4 -0.3 99
2018-02-18 06:00:00 4.2 2 Sur 8 Sur 0 1006.5 -0.6 99
2018-02-18 05:00:00 4.8 3 Sur 6 Sudeste 0 1006.5 -0.9 99
2018-02-18 04:00:00 5 3 Sur 4 Sur 0 1006.7 -1 99
2018-02-18 03:00:00 5.5 6 Sudeste 9 Sudeste 0 1007.1 -0.6 98
2018-02-18 02:00:00 6.1 5 Sur 8 Sudeste 0 1007.4 0.1 95
2018-02-18 01:00:00 6.9 5 Sudeste 8 Sudeste 0 1007.7 0.3 93
2018-02-18 00:00:00 7.7 6 Sudeste 15 Sudoeste 0 1007.7 0.2 88
2018-02-17 23:00:00 10.4 11 Oeste 18 Oeste 0 1007.3 0 79
2018-02-17 22:00:00 11.1 15 Oeste 19 Oeste 0 1007.4 0.5 77
2018-02-17 21:00:00 9.7 8 Noroeste 11 Noroeste 0 1007.5 1 76
2018-02-17 20:00:00 11.3 8 Noroeste 17 Oeste 0 1007.3 0.8 69
2018-02-17 19:00:00 14.7 11 Oeste 17 Oeste 0 1006.9 -0.1 60
2018-02-17 18:00:00 17 8 Oeste 17 Sudoeste 0 1006.5 -1.1 53
2018-02-17 17:00:00 17.4 9 Oeste 17 Oeste 0 1006.5 -2 54
2018-02-17 16:00:00 16.3 5 Oeste 15 Noroeste 0 1007 -2.4 65
2018-02-17 15:00:00 13.6 3 Noroeste 15 Oeste 0 1007.6 -2.3 76
2018-02-17 14:00:00 12.1 8 Oeste 16 Oeste 0 1008.5 -1.4 83
2018-02-17 13:00:00 11.9 8 Oeste 14 Oeste 0 1009.4 -0.5 87
2018-02-17 12:00:00 10.1 5 Sur 9 Sur 0 1009.9 0.5 99
2018-02-17 11:00:00 9.4 6 Sudoeste 16 Oeste 0 1009.9 0.8 99
2018-02-17 10:00:00 7.8 0 Calma 11 Oeste 0 1009.9 1.3 99
2018-02-17 09:00:00 5.8 3 Sudeste 6 Sur 0 1009.4 1.2 99
2018-02-17 08:00:00 5.5 0 Calma 6 Sudeste 0 1009.1 1.1 99
2018-02-17 07:00:00 5 3 Sudeste 4 Sudeste 0 1008.6 0.6 99
2018-02-17 06:00:00 4.6 2 Sur 5 Sudeste 0 1008.2 0.2 97
2018-02-17 05:00:00 5.8 0 Calma 4 Sur 0 1008 -0.1 95
2018-02-17 04:00:00 6.5 0 Calma 7 Sudeste 0 1008 -0.2 93
2018-02-17 03:00:00 7.8 0 Calma 4 Sudoeste 0 1008 -0.3 91
2018-02-17 02:00:00 8.4 2 Norte 19 Sudoeste 0 1008.1 0 89
2018-02-17 01:00:00 10.9 16 Sudoeste 22 Sudoeste 0 1008.2 0.5 84
2018-02-17 00:00:00 11.7 13 Sudoeste 21 Oeste 0 1008.3 1.3 80
2018-02-16 23:00:00 12.7 13 Oeste 21 Oeste 0 1008.1 1.2 71
2018-02-16 22:00:00 14.6 14 Oeste 25 Oeste 0 1007.7 1.3 60
2018-02-16 21:00:00 14 11 Oeste 19 Oeste 0 1007 1 53
2018-02-16 20:00:00 14.6 10 Oeste 15 Oeste 0 1006.9 1 51
2018-02-16 19:00:00 17 10 Oeste 15 Oeste 0 1006.4 0.4 43
2018-02-16 18:00:00 20.5 9 Oeste 14 Oeste 0 1006 -0.8 40
2018-02-16 17:00:00 21.1 5 Noroeste 13 Oeste 0 1005.9 -1.9 43
2018-02-16 16:00:00 20.8 3 Este 12 Norte 0 1006 -2.7 45
2018-02-16 15:00:00 20.3 4 Este 9 Noroeste 0 1006.8 -2.6 47
2018-02-16 14:00:00 19.1 5 Norte 14 Nordeste 0 1007.8 -2.1 52
2018-02-16 13:00:00 17.9 0 Calma 10 Norte 0 1008.7 -1 58
2018-02-16 12:00:00 14.6 4 Norte 13 Nordeste 0 1009.4 -0.2 68
2018-02-16 11:00:00 11.9 0 Calma 6 Este 0 1009.9 0.8 78
2018-02-16 10:00:00 8 0 Calma 5 Sudeste 0 1009.7 0.6 90
2018-02-16 09:00:00 4.7 0 Calma 5 Sur 0 1009.6 0.6 99
2018-02-16 08:00:00 3.5 0 Calma 4 Sur 0 1009.1 0.3 98
2018-02-16 07:00:00 3.9 0 Calma -- -- 0 1009.1 -0.3 96
2018-02-16 06:00:00 4.5 0 Calma 4 Sur 0 1009 -0.7 95
2018-02-16 05:00:00 5.2 2 Sur 4 Sudeste 0 1008.8 -0.7 94
2018-02-16 04:00:00 5.9 0 Calma 4 Sur 0 1009.4 -0.5 93
2018-02-16 03:00:00 6.4 0 Calma 4 Sudeste 0 1009.7 -0.3 90
2018-02-16 02:00:00 7 2 Sur 4 Sur 0 1009.5 -0.3 86
2018-02-16 01:00:00 7.7 0 Calma 3 Sur 0 1009.9 0.2 82
2018-02-16 00:00:00 8.8 0 Calma 5 Norte 0 1010 0.6 76
2018-02-15 23:00:00 10.4 4 Sudoeste 6 Sudoeste 0 1009.8 0.5 74
2018-02-15 22:00:00 10.7 0 Calma 3 Este 0 1009.7 0.3 65
2018-02-15 21:00:00 12.7 0 Calma 4 Noroeste 0 1009.4 0.2 59
2018-02-15 20:00:00 14.2 0 Calma 4 Oeste 0 1009.3 0.3 55
2018-02-15 19:00:00 16.6 0 Calma 8 Nordeste 0 1009.4 0.1 51
2018-02-15 18:00:00 18.4 4 Nordeste 13 Nordeste 0 1009.2 -0.4 48
2018-02-15 17:00:00 18.5 7 Nordeste 15 Este 0 1009 -1.3 46
2018-02-15 16:00:00 18.6 7 Nordeste 18 Noroeste 0 1009.3 -1.9 46
2018-02-15 15:00:00 17.8 8 Nordeste 23 Este 0 1009.6 -2.2 48
2018-02-15 14:00:00 17.4 10 Nordeste 27 Nordeste 0 1010.3 -1.8 50
2018-02-15 13:00:00 16 14 Nordeste 23 Nordeste 0 1011.2 -0.8 54
2018-02-15 12:00:00 13.6 8 Este 17 Este 0 1011.8 0 65
2018-02-15 11:00:00 10.2 2 Sudeste 8 Este 0 1012.1 0.9 76
2018-02-15 10:00:00 7.1 2 Sur 6 Sudeste 0 1012 1 87
2018-02-15 09:00:00 3.7 0 Calma 5 Sur 0 1011.8 0.7 97
2018-02-15 08:00:00 2.2 6 Sudoeste 8 Sudoeste 0 1011.2 0.6 97
2018-02-15 07:00:00 2.5 0 Calma 3 Sudoeste 0 1011 0.5 96
2018-02-15 06:00:00 2.1 0 Calma 8 Sudeste 0 1011.1 0.7 94
2018-02-15 05:00:00 3.6 4 Sur 7 Sur 0 1010.6 0.3 92
2018-02-15 04:00:00 4 4 Sur 8 Sur 0 1010.5 0 90
2018-02-15 03:00:00 3.7 0 Calma 6 Sur 0 1010.4 0.2 88
2018-02-15 02:00:00 4.8 0 Calma 9 Sur 0 1010.3 0.1 86
2018-02-15 01:00:00 5.4 2 Sur 6 Sudeste 0 1010.5 0.6 82
2018-02-15 00:00:00 6.2 3 Sur 6 Sur 0 1010.2 0.6 79
2018-02-14 23:00:00 6.7 6 Sudeste 11 Sudeste 0 1010.2 1 75
2018-02-14 22:00:00 7.9 3 Sudeste 8 Sudoeste 0 1009.9 0.9 70
2018-02-14 21:00:00 9.2 2 Oeste 13 Oeste 0 1009.6 0.9 63
2018-02-14 20:00:00 10.2 7 Sudoeste 10 Sudoeste 0 1009.2 0.6 59
2018-02-14 19:00:00 12.9 6 Oeste 17 Oeste 0 1009 0.5 51
2018-02-14 18:00:00 15.4 4 Oeste 15 Oeste 0 1008.7 -0.1 47
2018-02-14 17:00:00 15.8 4 Oeste 17 Norte 0 1008.6 -0.6 47
2018-02-14 16:00:00 15.2 6 Oeste 14 Noroeste 0 1008.5 -1.6 48
2018-02-14 15:00:00 13.9 4 Noroeste 14 Norte 0 1008.8 -2 51
2018-02-14 14:00:00 13.4 6 Noroeste 15 Oeste 0 1009.2 -1.5 53
2018-02-14 13:00:00 13.2 3 Sudoeste 7 Sudeste 0 1010.1 -0.5 58
2018-02-14 12:00:00 10.5 4 Norte 8 Norte 0 1010.8 0.8 75
2018-02-14 11:00:00 8.2 0 Calma 6 Sudeste 0 1010.7 1.3 80
2018-02-14 10:00:00 4.2 3 Sudeste 6 Sur 0 1010.6 1.5 89
2018-02-14 09:00:00 1.1 4 Sur 6 Sudeste 0 1010 0.8 99
2018-02-14 08:00:00 0 3 Sur 6 Sur 0 1009.4 0.6 99
2018-02-14 07:00:00 0.5 2 Sur 8 Sur 0 1009.1 0.6 99
2018-02-14 06:00:00 0.6 3 Sudoeste 5 Sudoeste 0 1009.2 0.4 96
2018-02-14 05:00:00 1.4 0 Calma 5 Sur 0 1008.8 -0.4 94
2018-02-14 04:00:00 1.5 3 Sudeste 6 Sudeste 0 1008.5 -0.7 92
2018-02-14 03:00:00 2.6 4 Sur 6 Sudeste 0 1008.8 -0.2 91
2018-02-14 02:00:00 3 0 Calma 7 Oeste 0 1009.2 0.2 90
2018-02-14 01:00:00 3.4 3 Sudoeste 9 Sudoeste 0 1009.2 0.5 88
2018-02-14 00:00:00 4.6 4 Sur 13 Este 0 1009 0.4 76
2018-02-13 23:00:00 5.7 5 Sudoeste 15 Sudoeste 0 1009 0.9 72
2018-02-13 22:00:00 7.9 11 Sudoeste 20 Oeste 0 1008.7 1 67
2018-02-13 21:00:00 6.8 3 Sudeste 15 Sudoeste 0 1008.6 1.3 56
2018-02-13 20:00:00 8.9 12 Sudoeste 15 Oeste 0 1008.1 0.7 49
2018-02-13 19:00:00 10.8 7 Oeste 21 Oeste 0 1007.7 -0.3 43
2018-02-13 18:00:00 13.5 13 Sudoeste 23 Oeste 0 1007.3 -0.9 41
2018-02-13 17:00:00 14.6 12 Oeste 25 Sudoeste 0 1007.4 -1.6 41
2018-02-13 16:00:00 14.3 9 Oeste 26 Oeste 0 1008 -1.8 43
2018-02-13 15:00:00 14.2 12 Oeste 26 Sudoeste 0 1008.2 -2.2 45
2018-02-13 14:00:00 13.2 13 Oeste 25 Sudoeste 0 1009 -1.4 49
2018-02-13 13:00:00 12 12 Oeste 22 Oeste 0 1009.8 -0.6 53
2018-02-13 12:00:00 11.1 4 Sudoeste 13 Sudoeste 0 1010.4 0.2 58
2018-02-13 11:00:00 7 5 Sudeste 8 Sudeste 0 1010.4 1.1 73
2018-02-13 10:00:00 3.8 3 Sur 7 Sur 0 1010.4 1.6 84
2018-02-13 09:00:00 1 0 Calma 8 Sur 0 1010.2 1.7 97
2018-02-13 08:00:00 -0.9 4 Sur 8 Sudeste 0 1009.3 0.4 96
2018-02-13 07:00:00 -0.6 0 Calma 8 Sudeste 0 1008.8 0.2 95
2018-02-13 06:00:00 -0.5 6 Sudeste 9 Sudeste 0 1008.5 -0.3 93
2018-02-13 05:00:00 -0.2 4 Sudeste 7 Sudeste 0 1008.9 0.2 90
2018-02-13 04:00:00 0.2 4 Este 10 Sur 0 1008.6 -0.1 85
2018-02-13 03:00:00 1.4 4 Sudeste 6 Sudeste 0 1008.8 0.2 81
2018-02-13 02:00:00 2.2 4 Sur 5 Sudeste 0 1008.7 0.5 75
2018-02-13 01:00:00 3.1 3 Norte 15 Oeste 0 1008.7 0.8 66
2018-02-13 00:00:00 6.3 8 Noroeste 13 Sudeste 0 1008.6 1.5 56
2018-02-12 23:00:00 7.3 12 Noroeste 14 Oeste 0 1008.2 1.5 54
2018-02-12 22:00:00 8.4 13 Noroeste 19 Noroeste 0 1007.9 1.9 52
2018-02-12 21:00:00 9.1 13 Noroeste 19 Noroeste 0 1007.1 1.7 51
2018-02-12 20:00:00 9.4 14 Noroeste 20 Noroeste 0 1006.7 1.8 50
2018-02-12 19:00:00 11 11 Noroeste 22 Noroeste 0 1006 1.1 46
2018-02-12 18:00:00 14.9 15 Noroeste 28 Noroeste 0 1005.4 0.1 42
2018-02-12 17:00:00 16.3 18 Noroeste 28 Noroeste 0 1004.9 -1.1 41
2018-02-12 16:00:00 15.5 19 Noroeste 31 Oeste 0 1004.9 -2.1 58
2018-02-12 15:00:00 13.3 13 Noroeste 33 Sudoeste 0 1005.3 -1.8 78
2018-02-12 14:00:00 13.8 16 Oeste 31 Sudoeste 0.1 1006 -1.2 88
2018-02-12 13:00:00 12.9 15 Oeste 31 Oeste 0.1 1007 -0.1 92
2018-02-12 12:00:00 12.4 20 Sudoeste 28 Sudoeste 0 1007.1 0.1 94
2018-02-12 11:00:00 11.5 16 Oeste 33 Oeste 0.1 1007.2 0.6 96
2018-02-12 10:00:00 11.3 17 Oeste 28 Oeste 0 1007.1 0.8 97
2018-02-12 09:00:00 10.6 12 Oeste 27 Oeste 0 1007 0.6 97
2018-02-12 08:00:00 10.6 15 Oeste 27 Oeste 0 1006.6 -0.2 97
2018-02-12 07:00:00 10.5 13 Oeste 24 Sudoeste 0 1006.3 -0.5 96
2018-02-12 06:00:00 10.6 13 Oeste 24 Oeste 0 1006.4 -1.2 95
2018-02-12 05:00:00 11 12 Oeste 26 Oeste 0 1006.8 -0.9 92
2018-02-12 04:00:00 11 17 Oeste 26 Oeste 0 1006.8 -1.7 90
2018-02-12 03:00:00 11 17 Sudoeste 23 Oeste 0 1007.6 -1.1 90
2018-02-12 02:00:00 10.5 14 Sudoeste 23 Sudoeste 0 1007.7 -1 87
2018-02-12 01:00:00 11.2 10 Sudoeste 23 Sudoeste 0 1008.5 -0.3 80
2018-02-12 00:00:00 11.2 12 Sudoeste 21 Sudoeste 0 1008.7 0.3 76
2018-02-11 23:00:00 11.4 13 Oeste 28 Sudoeste 0 1008.7 0.4 70
2018-02-11 22:00:00 11.2 16 Oeste 32 Sudoeste 0 1008.8 0.9 64
2018-02-11 21:00:00 11.7 21 Oeste 31 Sudoeste 0 1008.4 0.8 57
2018-02-11 20:00:00 12 17 Sudoeste 24 Sudoeste 0 1008.3 0.6 57
2018-02-11 19:00:00 13.3 9 Oeste 19 Sudoeste 0 1007.9 0 53
2018-02-11 18:00:00 15.5 13 Sudoeste 22 Sudoeste 0 1007.6 -0.8 48
2018-02-11 17:00:00 16.3 13 Sudoeste 21 Sudoeste 0 1007.7 -1.7 46
2018-02-11 16:00:00 16.6 9 Oeste 21 Oeste 0 1007.9 -2.6 47
2018-02-11 15:00:00 15.4 6 Norte 13 Norte 0 1008.4 -2.6 48
2018-02-11 14:00:00 14.1 3 Noroeste 10 Noroeste 0 1009.4 -2.1 48
2018-02-11 13:00:00 12.4 3 Este 8 Este 0 1010.5 -1.1 53
2018-02-11 12:00:00 9.9 0 Calma 5 Este 0 1011 0.1 62
2018-02-11 11:00:00 7.4 0 Calma 7 Sur 0 1011.5 1.3 72
2018-02-11 10:00:00 4.1 0 Calma 4 Sudeste 0 1011.6 2.1 84
2018-02-11 09:00:00 0.6 3 Este 6 Este 0 1010.9 1.4 96
2018-02-11 08:00:00 -1 2 Sur 6 Sudeste 0 1010.2 0.9 95
2018-02-11 07:00:00 0 0 Calma 6 Sur 0 1009.5 0.4 93
2018-02-11 06:00:00 0.4 5 Sur 8 Sur 0 1009.5 0 93
2018-02-11 05:00:00 0.6 0 Calma 10 Sudoeste 0 1009.3 0.1 91
2018-02-11 04:00:00 1.4 6 Sur 10 Sudoeste 0 1009.1 0.1 90
2018-02-11 03:00:00 1.6 0 Calma 6 Sudoeste 0 1009.5 0.6 87
2018-02-11 02:00:00 2.9 2 Sudeste 7 Sudeste 0 1009.2 0.4 83
2018-02-11 01:00:00 3.7 0 Calma 6 Sudeste 0 1009 0.4 79
2018-02-11 00:00:00 4.7 4 Sur 5 Sur 0 1008.9 1 76
2018-02-10 23:00:00 6.5 0 Calma 10 Noroeste 0 1008.8 1.3 71
2018-02-10 22:00:00 7.4 9 Noroeste 24 Noroeste 0 1008.6 2.2 68
2018-02-10 21:00:00 9 15 Noroeste 21 Noroeste 0 1007.9 1.8 60
2018-02-10 20:00:00 9.9 6 Oeste 8 Oeste 0 1007.5 1.6 52
2018-02-10 19:00:00 11.8 0 Calma 5 Nordeste 0 1006.4 0 49
2018-02-10 18:00:00 13.6 3 Nordeste 9 Nordeste 0 1006.1 -0.8 46
2018-02-10 17:00:00 14.6 0 Calma 12 Este 0 1005.9 -1.9 45
2018-02-10 16:00:00 14.1 5 Norte 15 Norte 0 1006.4 -2.1 45
2018-02-10 15:00:00 13.8 8 Nordeste 26 Nordeste 0 1006.9 -2.1 46
2018-02-10 14:00:00 12.7 9 Nordeste 21 Este 0 1007.8 -1.3 48
2018-02-10 13:00:00 12.3 9 Este 19 Este 0 1008.5 -0.6 56
2018-02-10 12:00:00 9.9 3 Este 9 Sudeste 0 1009 0 69
2018-02-10 11:00:00 7.9 2 Sudeste 6 Este 0 1009.1 1.1 76
2018-02-10 10:00:00 4.5 4 Sudeste 5 Sur 0 1009.1 1.2 85
2018-02-10 09:00:00 1.4 0 Calma 6 Sur 0 1009 1.1 92
2018-02-10 08:00:00 0.5 4 Sur 8 Sur 0 1008 0.4 91
2018-02-10 07:00:00 1.3 0 Calma 5 Sudoeste 0 1007.9 -0.1 90
2018-02-10 06:00:00 1.6 0 Calma 4 Sudoeste 0 1007.9 -0.3 89
2018-02-10 05:00:00 1.8 2 Sur 5 Sudeste 0 1007.6 -0.3 89
2018-02-10 04:00:00 2.3 3 Sudeste 7 Sudeste 0 1008 -0.5 86
2018-02-10 03:00:00 3 5 Sudeste 7 Sudeste 0 1008.2 -0.2 84
2018-02-10 02:00:00 3.9 0 Calma 6 Sudeste 0 1007.9 -0.5 84
2018-02-10 01:00:00 5 2 Sudeste 8 Sur 0 1008.5 0.1 81
2018-02-10 00:00:00 6.1 5 Sudeste 21 Oeste 0 1008.4 0.2 76
2018-02-09 23:00:00 7.9 14 Sudoeste 21 Oeste 0 1008.4 0.6 68
2018-02-09 22:00:00 8.3 14 Oeste 20 Sudoeste 0 1008.4 1.2 60
2018-02-09 21:00:00 7.8 10 Oeste 21 Oeste 0 1008.2 1.8 55
2018-02-09 20:00:00 8.3 14 Oeste 22 Oeste 0 1007.8 1.7 48
2018-02-09 19:00:00 9.6 6 Oeste 14 Oeste 0 1007.2 1 43
2018-02-09 18:00:00 11.8 10 Oeste 18 Sudoeste 0 1006.4 -0.3 38
2018-02-09 17:00:00 11.7 7 Oeste 17 Oeste 0 1006.1 -1.4 39
2018-02-09 16:00:00 11.8 10 Noroeste 18 Noroeste 0 1006.2 -2.2 38
2018-02-09 15:00:00 11.3 10 Sudoeste 18 Oeste 0 1006.7 -1.7 41
2018-02-09 14:00:00 11.8 2 Sudoeste 12 Norte 0 1007.5 -0.8 43
2018-02-09 13:00:00 9.4 0 Calma 9 Sudeste 0 1008.4 0 49
2018-02-09 12:00:00 7.7 3 Sudeste 8 Este 0 1008.4 0.7 57
2018-02-09 11:00:00 4.4 4 Sudeste 8 Sudeste 0 1008.3 1.1 72
2018-02-09 10:00:00 1.2 4 Sudeste 7 Sudeste 0 1008.4 1.6 82
2018-02-09 09:00:00 -1.3 0 Calma 2 Sudeste 0 1007.7 1 88
2018-02-09 08:00:00 -3.4 0 Calma 3 Sudeste 0 1007.2 0.5 87
2018-02-09 07:00:00 -2.9 0 Calma 6 Sudeste 0 1006.8 0.1 83
2018-02-09 06:00:00 -1.5 0 Calma 4 Noroeste 0 1006.7 -0.1 76
2018-02-09 05:00:00 -0.6 0 Calma 2 Sur 0 1006.7 0.2 76
2018-02-09 04:00:00 0 0 Calma 12 Noroeste 0 1006.7 0.1 72
2018-02-09 03:00:00 0.2 8 Noroeste 9 Norte 0 1006.8 0.1 70
2018-02-09 02:00:00 1.1 3 Noroeste 6 Noroeste 0 1006.5 0 64
2018-02-09 01:00:00 1.3 0 Calma 5 Noroeste 0 1006.6 0.5 61
2018-02-09 00:00:00 2.9 4 Noroeste 7 Noroeste 0 1006.7 1.4 54
2018-02-08 23:00:00 5.5 0 Calma 16 Norte 0 1006.5 1.9 48
2018-02-08 22:00:00 6.8 9 Norte 20 Norte 0 1006.1 2.3 45
2018-02-08 21:00:00 6.4 10 Norte 17 Norte 0 1005.3 2 45
2018-02-08 20:00:00 7.4 13 Norte 17 Norte 0 1004.6 1.5 44
2018-02-08 19:00:00 10.3 2 Nordeste 12 Nordeste 0 1003.8 0.8 40
2018-02-08 18:00:00 12.6 3 Nordeste 14 Norte 0 1003.3 0 37
2018-02-08 17:00:00 12.9 8 Nordeste 17 Este 0 1003.1 -0.6 36
2018-02-08 16:00:00 12.5 9 Nordeste 25 Nordeste 0 1003 -1.4 38
2018-02-08 15:00:00 12.3 10 Nordeste 20 Nordeste 0 1003.3 -1.6 39
2018-02-08 14:00:00 11.2 10 Nordeste 23 Este 0 1003.7 -1.2 42
2018-02-08 13:00:00 10.1 17 Este 27 Este 0 1004.4 -0.4 44
2018-02-08 12:00:00 9 15 Nordeste 26 Nordeste 0 1004.9 0.9 45
2018-02-08 11:00:00 7.3 16 Este 24 Este 0 1004.9 1.5 54
2018-02-08 10:00:00 4.5 4 Nordeste 12 Norte 0 1004.8 1.8 67
2018-02-08 09:00:00 0.9 5 Noroeste 7 Noroeste 0 1004 1.1 76
2018-02-08 08:00:00 0.5 2 Norte 10 Norte 0 1003.4 1 74
2018-02-08 07:00:00 0.9 5 Norte 11 Noroeste 0 1003 0.6 75
2018-02-08 06:00:00 0.2 11 Noroeste 14 Noroeste 0 1002.9 0.2 76
2018-02-08 05:00:00 0.3 5 Norte 10 Noroeste 0 1002.4 -0.2 73
2018-02-08 04:00:00 1.1 3 Norte 8 Norte 0 1002.4 -0.1 73
2018-02-08 03:00:00 1.1 3 Noroeste 10 Noroeste 0 1002.7 0.4 72
2018-02-08 02:00:00 1.3 8 Noroeste 14 Noroeste 0 1002.6 0.3 70
2018-02-08 01:00:00 1.4 8 Norte 12 Noroeste 0 1002.5 0.6 63
2018-02-08 00:00:00 2.7 6 Norte 8 Norte 0 1002.3 0.2 56
2018-02-07 23:00:00 4.5 4 Norte 15 Norte 0 1002.3 1.1 51
2018-02-07 22:00:00 5.6 5 Norte 15 Norte 0 1001.9 1.3 48
2018-02-07 21:00:00 5.7 4 Norte 15 Norte 0 1002.1 2.4 46
2018-02-07 20:00:00 7 4 Nordeste 16 Nordeste 0 1001.2 1.9 45
2018-02-07 19:00:00 8.4 9 Nordeste 26 Nordeste 0 1000.6 1.5 42
2018-02-07 18:00:00 9.8 19 Este 32 Este 0 999.7 0.5 38
2018-02-07 17:00:00 10.3 20 Este 32 Este 0 999.3 -0.5 40
2018-02-07 16:00:00 10.9 23 Este 35 Este 0 999.1 -1.2 38
2018-02-07 15:00:00 10.2 24 Este 36 Este 0 999.2 -1.6 39
2018-02-07 14:00:00 9.9 26 Este 39 Este 0 999.8 -0.5 41
2018-02-07 13:00:00 9.3 27 Este 41 Este 0 1000.3 0.3 41
2018-02-07 12:00:00 9.2 26 Este 41 Nordeste 0 1000.8 1.3 42
2018-02-07 11:00:00 8.4 22 Este 39 Este 0 1000.3 1.3 51
2018-02-07 10:00:00 6.8 14 Nordeste 23 Este 0 1000 1.6 63
2018-02-07 09:00:00 4.4 4 Norte 13 Nordeste 0 999.5 1.2 86
2018-02-07 08:00:00 3.6 0 Calma 9 Norte 0 999 1.1 94
2018-02-07 07:00:00 3.2 4 Norte 10 Norte 0 998.4 0.2 94
2018-02-07 06:00:00 2.8 8 Noroeste 16 Oeste 0 998.3 0.1 92
2018-02-07 05:00:00 3.1 2 Norte 6 Noroeste 0 997.9 -0.3 89
2018-02-07 04:00:00 3.6 3 Noroeste 11 Este 0 998.2 -0.3 87
2018-02-07 03:00:00 4.2 6 Sudeste 13 Este 0 998.2 -0.4 84
2018-02-07 02:00:00 4.3 5 Sudeste 8 Sudeste 0 998.2 -0.4 82
2018-02-07 01:00:00 5.5 3 Sudeste 5 Sudeste 0 998.5 0.5 77
2018-02-07 00:00:00 6.4 0 Calma 7 Nordeste 0 998.6 1 73
2018-02-06 23:00:00 6.5 4 Norte 13 Norte 0 998.6 1.4 71
2018-02-06 22:00:00 7 4 Sudeste 5 Sur 0 998 1.4 67
2018-02-06 21:00:00 7.9 3 Sur 7 Sudoeste 0 997.6 1.4 62
2018-02-06 20:00:00 8.4 4 Sur 12 Este 0 997.2 1.3 57
2018-02-06 19:00:00 9.6 0 Calma 10 Nordeste 0 996.6 0.6 50
2018-02-06 18:00:00 10.6 4 Nordeste 13 Norte 0 996.2 0.1 48
2018-02-06 17:00:00 10.9 6 Nordeste 18 Norte 0 995.9 -0.5 47
2018-02-06 16:00:00 10.5 8 Norte 23 Norte 0 996 -0.8 48
2018-02-06 15:00:00 10.9 5 Nordeste 21 Norte 0 996.1 -0.7 48
2018-02-06 14:00:00 10.1 9 Nordeste 26 Norte 0 996.4 -0.1 51
2018-02-06 13:00:00 9.6 7 Nordeste 21 Norte 0 996.8 1.2 58
2018-02-06 12:00:00 8.1 6 Nordeste 14 Norte 0 996.8 2.2 72
2018-02-06 11:00:00 6.7 3 Norte 7 Norte 0 996.5 2.2 85
2018-02-06 10:00:00 3.1 2 Este 5 Este 0 995.6 1.8 99
2018-02-06 09:00:00 2.1 0 Calma -- -- 0 994.6 0.8 99
2018-02-06 08:00:00 1.7 0 Calma -- -- 0 994.3 0.8 99
2018-02-06 07:00:00 1.4 0 Calma 4 Sudeste 0 993.8 0.4 99
2018-02-06 06:00:00 1.3 0 Calma 6 Oeste 0 993.8 0.3 99
2018-02-06 05:00:00 0.7 3 Sudeste 5 Sudeste 0 993.5 0.1 99
2018-02-06 04:00:00 1.1 0 Calma 6 Noroeste 0 993.4 0.2 97
2018-02-06 03:00:00 1.7 2 Noroeste 4 Noroeste 0 993.5 0.1 97
2018-02-06 02:00:00 2.2 2 Norte 7 Sudoeste 0 993.4 0.1 94
2018-02-06 01:00:00 3.1 7 Sudoeste 10 Sudoeste 0 993.2 -0.1 92
2018-02-06 00:00:00 2.7 0 Calma 8 Nordeste 0 993.4 0.1 90
2018-02-05 23:00:00 3.5 0 Calma 4 Sudoeste 0 993.3 0.5 83
2018-02-05 22:00:00 4.6 0 Calma 8 Sudeste 0 993.3 0.9 78
2018-02-05 21:00:00 6 0 Calma 14 Oeste 0 993.3 1.4 71
2018-02-05 20:00:00 6.5 12 Oeste 18 Noroeste 0 992.8 1 68
2018-02-05 19:00:00 7.2 13 Noroeste 23 Noroeste 0 992.4 0.5 65
2018-02-05 18:00:00 8.3 14 Noroeste 19 Noroeste 0 991.9 -0.1 60
2018-02-05 17:00:00 9.1 13 Noroeste 23 Noroeste 0 991.8 -0.9 56
2018-02-05 16:00:00 9 12 Oeste 24 Oeste 0 991.9 -1.5 59
2018-02-05 15:00:00 8.6 15 Oeste 27 Oeste 0 992 -1.7 60
2018-02-05 14:00:00 9.1 15 Oeste 28 Oeste 0 992.7 -0.9 64
2018-02-05 13:00:00 8 15 Oeste 23 Oeste 0 993.4 0 70
2018-02-05 12:00:00 6.8 10 Oeste 16 Oeste 0.1 993.7 0.6 84
2018-02-05 11:00:00 4 2 Este 4 Este 0.1 993.6 0.8 99
2018-02-05 10:00:00 2.6 0 Calma 5 Sur 0 993.4 0.9 99
2018-02-05 09:00:00 1.6 2 Sudeste 6 Sudeste 0.3 993.1 0.4 99
2018-02-05 08:00:00 0.6 0 Calma 4 Sudeste 0.1 992.8 0.2 98
2018-02-05 07:00:00 -0.1 0 Calma 8 Sudeste 0 992.5 -0.1 98
2018-02-05 06:00:00 -0.9 3 Sudeste 6 Sudeste 0 992.7 -0.5 99
2018-02-05 05:00:00 -1.3 5 Sudeste 7 Sudeste 0 992.6 -0.6 99
2018-02-05 04:00:00 -0.5 0 Calma 7 Sudoeste 0 992.6 -0.7 98
2018-02-05 03:00:00 0.5 0 Calma 9 Sudeste 0 993.2 0.1 99
2018-02-05 02:00:00 1 3 Sur 5 Sudoeste 0 993.2 -0.2 98
2018-02-05 01:00:00 2.2 0 Calma 4 Oeste 0 993.3 -0.2 97
2018-02-05 00:00:00 2.9 0 Calma 7 Oeste 0 993.1 -0.4 95
2018-02-04 23:00:00 4.1 3 Este 12 Oeste 0 993.4 -0.1 92
2018-02-04 22:00:00 4.7 3 Este 15 Sudoeste 0 993.5 0.6 89
2018-02-04 21:00:00 6.2 12 Sudoeste 23 Sudoeste 0 993.5 0.7 83
2018-02-04 20:00:00 6.3 15 Sudoeste 20 Sudoeste 0 993.5 0.7 81
2018-02-04 19:00:00 6.9 16 Sudoeste 20 Sudoeste 0 992.9 -0.2 77
2018-02-04 18:00:00 8.9 12 Sudoeste 17 Sudoeste 0 992.8 -0.9 64
2018-02-04 17:00:00 11.1 9 Sudoeste 17 Sudoeste 0 992.8 -2.1 51
2018-02-04 16:00:00 10.1 10 Oeste 19 Noroeste 0 993.1 -2.8 54
2018-02-04 15:00:00 9.6 8 Noroeste 19 Noroeste 0 993.7 -3.1 57
2018-02-04 14:00:00 9.6 12 Oeste 23 Oeste 0 994.9 -2.6 67
2018-02-04 13:00:00 9.2 14 Oeste 21 Noroeste 0 995.9 -1.5 74
2018-02-04 12:00:00 9.4 7 Oeste 15 Sudoeste 0 996.8 -0.9 86
2018-02-04 11:00:00 7.5 3 Sudoeste 10 Sur 0 997.5 -0.1 99
2018-02-04 10:00:00 6.5 5 Sudeste 10 Sudeste 0 997.4 -0.6 99
2018-02-04 09:00:00 6 0 Calma 21 Oeste 0 997.7 -1.1 99
2018-02-04 08:00:00 6.2 15 Oeste 25 Oeste 0 997.6 -1.6 99
2018-02-04 07:00:00 6.6 13 Oeste 31 Sudoeste 0 998 -2.2 98
2018-02-04 06:00:00 6.3 20 Oeste 31 Sudoeste 0 998.8 -2.3 96
2018-02-04 05:00:00 5.7 19 Sudoeste 34 Oeste 0.9 999.2 -2.6 89
2018-02-04 04:00:00 6.8 18 Sudoeste 24 Sudoeste 0 1000.2 -3.3 67
2018-02-04 03:00:00 6.3 18 Sudoeste 25 Sudoeste 0 1001.1 -2.7 69
2018-02-04 02:00:00 4.3 12 Sudoeste 15 Sudoeste 0 1001.8 -2.1 73
2018-02-04 01:00:00 5.3 5 Sudeste 23 Oeste 0 1003.5 -0.7 65
2018-02-04 00:00:00 7.1 17 Sudoeste 26 Sudoeste 0 1003.8 -0.5 61
2018-02-03 23:00:00 7.3 18 Sudoeste 28 Sudoeste 0 1003.9 -0.6 59
2018-02-03 22:00:00 7.8 17 Oeste 25 Sudoeste 0 1004.2 -0.2 54
2018-02-03 21:00:00 8.3 13 Oeste 23 Sudoeste 0 1004.3 0.2 52
2018-02-03 20:00:00 8.5 11 Oeste 18 Oeste 0 1004.5 0 49
2018-02-03 19:00:00 9.6 10 Oeste 13 Oeste 0 1004.4 -0.5 44
2018-02-03 18:00:00 12.6 8 Oeste 16 Oeste 0 1004.1 -1.1 38
2018-02-03 17:00:00 13.6 7 Sudoeste 15 Noroeste 0 1004.5 -1.6 37
2018-02-03 16:00:00 13 9 Oeste 18 Oeste 0 1004.9 -2.3 38
2018-02-03 15:00:00 12.5 3 Noroeste 13 Noroeste 0 1005.2 -2.9 40
2018-02-03 14:00:00 11.4 3 Noroeste 10 Oeste 0 1006.1 -2.4 46
2018-02-03 13:00:00 9.6 0 Calma 8 Este 0 1007.2 -1.1 51
2018-02-03 12:00:00 7.7 3 Norte 11 Norte 0 1008.1 0.3 56
2018-02-03 11:00:00 5.3 0 Calma 5 Sudeste 0 1008.5 1.3 71
2018-02-03 10:00:00 1.7 0 Calma 4 Noroeste 0 1008.3 1.6 84
2018-02-03 09:00:00 -2.3 0 Calma 6 Sur 0 1007.8 1.6 91
2018-02-03 08:00:00 -2.8 4 Sur 10 Sudoeste 0 1007.2 1.4 90
2018-02-03 07:00:00 -2.5 0 Calma 6 Sudeste 0 1006.7 0.4 87
2018-02-03 06:00:00 -2.1 0 Calma 10 Sur 0 1006.2 0.4 86
2018-02-03 05:00:00 -1 0 Calma 5 Sudeste 0 1005.8 0.3 84
2018-02-03 04:00:00 -0.3 3 Sur 8 Sur 0 1006.3 0.9 79
2018-02-03 03:00:00 0.6 3 Norte 5 Sudeste 0 1005.8 0.9 72
2018-02-03 02:00:00 1.4 4 Sur 12 Sur 0 1005.5 0.8 71
2018-02-03 01:00:00 2 0 Calma 9 Nordeste 0 1005.4 1.6 62
2018-02-03 00:00:00 3.8 8 Noroeste 13 Norte 0 1004.9 2 59
2018-02-02 23:00:00 5.8 11 Norte 14 Norte 0 1004.7 2.5 49
2018-02-02 22:00:00 6.1 7 Norte 12 Norte 0 1003.8 2.6 48
2018-02-02 21:00:00 6.5 4 Noroeste 9 Norte 0 1002.9 2.5 46
2018-02-02 20:00:00 7.4 6 Norte 12 Noroeste 0 1002.2 2.4 43
2018-02-02 19:00:00 10.1 9 Norte 28 Norte 0 1001.2 2 36
2018-02-02 18:00:00 11.5 13 Norte 31 Norte 0 1000.4 1.5 33
2018-02-02 17:00:00 12.7 14 Norte 31 Noroeste 0 999.8 0.3 33
2018-02-02 16:00:00 12 12 Norte 38 Noroeste 0 999.2 -1 36
2018-02-02 15:00:00 12.7 8 Norte 18 Nordeste 0 998.9 -1.4 41
2018-02-02 14:00:00 10.9 10 Noroeste 23 Noroeste 0 999.5 -0.7 46
2018-02-02 13:00:00 10 9 Noroeste 18 Noroeste 0 1000.2 0.7 49
2018-02-02 12:00:00 9 8 Noroeste 17 Norte 0 1000.3 1.6 56
2018-02-02 11:00:00 7.5 12 Noroeste 17 Noroeste 0 1000.2 2.5 60
2018-02-02 10:00:00 5.9 9 Noroeste 15 Noroeste 0 999.5 2.8 66
2018-02-02 09:00:00 4.3 5 Oeste 14 Noroeste 0 998.7 2.8 73
2018-02-02 08:00:00 3.1 8 Noroeste 17 Norte 0 997.7 2.1 74
2018-02-02 07:00:00 3.1 12 Noroeste 16 Noroeste 0 996.7 1.4 76
2018-02-02 06:00:00 3.3 8 Oeste 13 Noroeste 0 995.9 0.5 76
2018-02-02 05:00:00 3.8 11 Noroeste 13 Noroeste 0 995.6 0.4 76
2018-02-02 04:00:00 4.8 8 Noroeste 12 Oeste 0 995.3 -0.2 73
2018-02-02 03:00:00 6.6 3 Norte 27 Norte 0 995.4 0.4 67
2018-02-02 02:00:00 7.2 10 Norte 29 Norte 0 995.2 0.4 65
2018-02-02 01:00:00 7.9 16 Norte 36 Norte 0 995.5 1.4 61
2018-02-02 00:00:00 8.8 22 Noroeste 32 Noroeste 0 995 0.6 55
2018-02-01 23:00:00 9.2 14 Noroeste 33 Oeste 0 994.8 0 65
2018-02-01 22:00:00 9.8 19 Oeste 28 Oeste 0 994.1 -0.6 68
2018-02-01 21:00:00 11.4 16 Oeste 24 Oeste 0 994.4 0.2 65
2018-02-01 20:00:00 11.4 13 Oeste 32 Sudoeste 0 994.8 -0.1 66
2018-02-01 19:00:00 12.2 21 Oeste 39 Sudoeste 0 994.7 -1.2 65
2018-02-01 18:00:00 13.2 24 Sudoeste 45 Oeste 0 994.2 -2.6 60
2018-02-01 17:00:00 14.9 26 Sudoeste 46 Oeste 0 994.9 -3.3 53
2018-02-01 16:00:00 15.8 25 Oeste 42 Sudoeste 0 995.9 -4.1 56
2018-02-01 15:00:00 14.5 32 Sudoeste 49 Oeste 0 996.8 -4.2 67
2018-02-01 14:00:00 13.9 23 Sudoeste 40 Sudoeste 0 998.2 -3 76
2018-02-01 13:00:00 13.5 21 Sudoeste 37 Sudoeste 0 1000 -1.3 78
2018-02-01 12:00:00 13.2 20 Oeste 36 Sudoeste 0 1001 -0.7 80
2018-02-01 11:00:00 11.8 17 Sudoeste 31 Sudoeste 0 1001.2 -0.1 88
2018-02-01 10:00:00 9.3 8 Sur 14 Sudoeste 0 1001.3 -0.2 99
2018-02-01 09:00:00 7.5 10 Sudoeste 14 Sudoeste 0 1001.7 0.2 99
2018-02-01 08:00:00 6.8 10 Sudoeste 12 Sudoeste 0 1001.3 -0.4 99
2018-02-01 07:00:00 5.2 6 Sudoeste 11 Sudoeste 0 1001.5 -0.5 97
2018-02-01 06:00:00 5.4 0 Calma 3 Sudoeste 0 1001.5 -0.9 94
2018-02-01 05:00:00 5.7 0 Calma 5 Este 0 1001.7 -1.3 94
2018-02-01 04:00:00 6.7 0 Calma 13 Sudoeste 0 1002 -1.5 91
2018-02-01 03:00:00 8.6 10 Sudoeste 17 Sudoeste 0 1002.4 -1.2 88
2018-02-01 02:00:00 9.8 12 Sudoeste 17 Sudoeste 0 1003 -1 81
2018-02-01 01:00:00 10.9 10 Sudoeste 19 Sudoeste 0 1003.5 -0.2 71
2018-02-01 00:00:00 11.1 11 Sudoeste 19 Sudoeste 0 1003.6 -0.4 67
2018-01-31 23:00:00 11.3 7 Sudoeste 13 Sur 0 1004 0.4 68
2018-01-31 22:00:00 11.4 10 Sur 12 Sudoeste 0 1003.7 0.8 67
2018-01-31 21:00:00 12.1 8 Sudoeste 20 Sudoeste 0 1004 1.3 64
2018-01-31 20:00:00 12.3 9 Sudoeste 18 Sur 0 1003.6 0.8 61
2018-01-31 19:00:00 12.6 10 Sur 12 Sur 0 1002.9 -0.6 59
2018-01-31 18:00:00 15 4 Nordeste 10 Nordeste 0 1002.7 -1.1 49
2018-01-31 17:00:00 15.5 9 Este 19 Sudeste 0 1002.8 -2.7 47
2018-01-31 16:00:00 16.2 9 Este 15 Este 0 1003.5 -3.8 46
2018-01-31 15:00:00 16 10 Nordeste 19 Norte 0 1003.8 -4.4 47
2018-01-31 14:00:00 14.7 6 Nordeste 13 Nordeste 0 1005.5 -2.8 55
2018-01-31 13:00:00 13.2 4 Este 10 Este 0 1007.3 -0.9 64
2018-01-31 12:00:00 12 4 Nordeste 12 Sudeste 0 1008.2 0.3 70
2018-01-31 11:00:00 10.5 6 Este 10 Este 0 1008.3 0.2 77
2018-01-31 10:00:00 8.9 5 Este 13 Este 0 1008.2 0.1 84
2018-01-31 09:00:00 7.1 6 Sudeste 12 Sudeste 0 1007.9 0.5 94
2018-01-31 08:00:00 7.7 6 Nordeste 9 Este 0 1008.1 0.4 94
2018-01-31 07:00:00 7.7 0 Calma 7 Norte 0 1008.1 -0.1 94
2018-01-31 06:00:00 6.8 4 Norte 7 Nordeste 0 1007.4 -1.2 94
2018-01-31 05:00:00 7.3 5 Sudoeste 11 Sudoeste 0 1007.7 -1.3 93
2018-01-31 04:00:00 7 0 Calma 2 Sur 0 1008.2 -1 91
2018-01-31 03:00:00 7.1 0 Calma 6 Norte 0 1008.6 -0.4 88
2018-01-31 02:00:00 7.3 0 Calma 6 Sudoeste 0 1009 -0.1 87
2018-01-31 01:00:00 8 7 Sudoeste 9 Sur 0 1009.2 0.4 86
2018-01-31 00:00:00 8.3 0 Calma 5 Noroeste 0 1009 0.3 82
2018-01-30 23:00:00 8.6 0 Calma 3 Sudoeste 0 1009.1 0.7 80
2018-01-30 22:00:00 9.1 0 Calma 4 Este 0 1008.8 0.7 73
2018-01-30 21:00:00 10.1 0 Calma 6 Oeste 0 1008.7 0.6 70
2018-01-30 20:00:00 11.1 0 Calma 6 Sur 0 1008.4 0.3 64
2018-01-30 19:00:00 12.9 2 Sur 5 Sudeste 0 1008.1 -0.2 57
2018-01-30 18:00:00 14.8 3 Sur 8 Este 0 1008.1 -0.9 51
2018-01-30 17:00:00 15.8 6 Este 11 Este 0 1008.1 -2 47
2018-01-30 16:00:00 15.7 7 Nordeste 15 Nordeste 0 1008.3 -2.6 46
2018-01-30 15:00:00 15.5 4 Nordeste 11 Norte 0 1009 -2.7 49
2018-01-30 14:00:00 14.7 3 Este 11 Este 0 1010.1 -1.8 50
2018-01-30 13:00:00 14.3 6 Nordeste 12 Nordeste 0 1010.9 -0.6 51
2018-01-30 12:00:00 12.4 5 Nordeste 13 Nordeste 0 1011.7 0.3 59
2018-01-30 11:00:00 11.9 7 Este 13 Este 0 1011.9 0.6 65
2018-01-30 10:00:00 9.2 5 Nordeste 16 Nordeste 0 1011.5 0.6 73
2018-01-30 09:00:00 8.1 9 Nordeste 22 Este 0 1011.4 0 78
2018-01-30 08:00:00 7.3 0 Calma 20 Sudoeste 0 1011.3 -0.4 84
2018-01-30 07:00:00 7.4 5 Norte 14 Sur 0 1010.9 -1.5 85
2018-01-30 06:00:00 6.5 0 Calma 5 Sudoeste 0 1011.4 -0.9 89
2018-01-30 05:00:00 6.2 3 Sur 6 Nordeste 0 1011.7 -0.8 89
2018-01-30 04:00:00 6.1 0 Calma 8 Sudoeste 0 1012.4 -0.4 87
2018-01-30 03:00:00 6.1 5 Sudoeste 9 Sudoeste 0 1012.3 -0.2 89
2018-01-30 02:00:00 6.3 4 Norte 5 Noroeste 0 1012.5 0 90
2018-01-30 01:00:00 7 0 Calma 7 Norte 0 1012.8 0.7 89
2018-01-30 00:00:00 7.9 8 Sudoeste 13 Sudoeste 0 1012.5 0.6 85
2018-01-29 23:00:00 8.2 3 Sudoeste 18 Sudoeste 0 1012.5 0.5 81
2018-01-29 22:00:00 10.1 3 Nordeste 8 Nordeste 0 1012.1 0.3 73
2018-01-29 21:00:00 10.7 5 Sur 6 Sur 0 1011.9 1 65
2018-01-29 20:00:00 12.8 0 Calma 18 Sur 0 1012 0.9 56
2018-01-29 19:00:00 15.5 11 Sudeste 26 Sudeste 0 1011.8 0.5 44
2018-01-29 18:00:00 17 14 Nordeste 34 Este 0 1010.9 -0.4 40
2018-01-29 17:00:00 18.5 20 Nordeste 37 Este 0 1011.1 -1.2 38
2018-01-29 16:00:00 18.6 21 Este 40 Nordeste 0 1011.3 -1.9 38
2018-01-29 15:00:00 18 25 Este 41 Este 0 1011.3 -2.8 40
2018-01-29 14:00:00 17.4 26 Este 40 Este 0 1012.3 -2 43
2018-01-29 13:00:00 16.8 28 Este 41 Este 0 1013.2 -1.1 45
2018-01-29 12:00:00 15.7 21 Este 35 Nordeste 0 1014.1 -- 48
2018-01-29 11:00:00 14.1 18 Este 28 Nordeste 0 1014.3 -- 52
2018-01-29 10:00:00 11.3 15 Este 25 Este 0 1014.3 -- 58
2018-01-29 09:00:00 -- -- -- -- -- -- -- -- --
2018-01-29 08:00:00 -- -- -- -- -- -- -- -- --
2018-01-29 07:00:00 -- -- -- -- -- -- -- -- --
2018-01-29 06:00:00 -- -- -- -- -- -- -- -- --
2018-01-29 05:00:00 -- -- -- -- -- -- -- -- --
2018-01-29 04:00:00 -- -- -- -- -- -- -- -- --
2018-01-29 03:00:00 -- -- -- -- -- -- -- -- --
2018-01-29 02:00:00 -- -- -- -- -- -- -- -- --
2018-01-29 01:00:00 -- -- -- -- -- -- -- -- --
2018-01-29 00:00:00 -- -- -- -- -- -- -- -- --
2018-01-28 23:00:00 -- -- -- -- -- -- -- -- --
2018-01-28 22:00:00 -- -- -- -- -- -- -- -- --
2018-01-28 21:00:00 -- -- -- -- -- -- -- -- --
2018-01-28 20:00:00 -- -- -- -- -- -- -- -- --
2018-01-28 19:00:00 -- -- -- -- -- -- -- -- --
2018-01-28 18:00:00 -- -- -- -- -- -- -- -- --
2018-01-28 17:00:00 -- -- -- -- -- -- -- -- --
2018-01-28 16:00:00 -- -- -- -- -- -- -- -- --
2018-01-28 15:00:00 -- -- -- -- -- -- -- -- --
2018-01-28 14:00:00 -- -- -- -- -- -- -- -- --
2018-01-28 13:00:00 -- -- -- -- -- -- -- -- --
2018-01-28 12:00:00 10.5 28 Este 42 Este 0 1012.8 1.1 64
2018-01-28 11:00:00 9 17 Este 26 Este 0 1012.9 0.9 67
2018-01-28 10:00:00 6.5 3 Sudeste 15 Nordeste 0 1012.7 0.8 70
2018-01-28 09:00:00 5.4 5 Nordeste 18 Nordeste 0 1011.7 0 72
2018-01-28 08:00:00 5 5 Nordeste 12 Nordeste 0 1012 0.6 71
2018-01-28 07:00:00 3.5 3 Norte 12 Norte 0 1011.9 -0.2 80
2018-01-28 06:00:00 2.8 2 Sur 10 Nordeste 0 1011.7 -0.6 79
2018-01-28 05:00:00 3.2 0 Calma 12 Norte 0 1011.4 -1.4 77
2018-01-28 04:00:00 3.3 5 Noroeste 13 Nordeste 0 1012.1 -1 76
2018-01-28 03:00:00 3.6 7 Norte 11 Noroeste 0 1012.3 -1.1 75
2018-01-28 02:00:00 2.8 0 Calma 5 Oeste 0 1012.8 -0.4 75
2018-01-28 01:00:00 3.6 0 Calma 6 Sudoeste 0 1013.1 -0.3 74
2018-01-28 00:00:00 4.7 0 Calma 6 Sudoeste 0 1013.4 0.6 68
2018-01-27 23:00:00 5.7 5 Oeste 7 Sudoeste 0 1013.2 0.6 65
2018-01-27 22:00:00 6.2 5 Sur 8 Sudoeste 0 1013.4 1 62
2018-01-27 21:00:00 7.5 2 Norte 9 Nordeste 0 1012.8 0.9 51
2018-01-27 20:00:00 8.3 2 Este 12 Este 0 1012.6 0.9 46
2018-01-27 19:00:00 10.5 7 Nordeste 26 Este 0 1012.4 0.6 40
2018-01-27 18:00:00 12.1 15 Nordeste 28 Nordeste 0 1011.9 0 37
2018-01-27 17:00:00 12.8 18 Nordeste 26 Este 0 1011.7 -1 35
2018-01-27 16:00:00 12.8 10 Nordeste 28 Nordeste 0 1011.8 -1.8 37
2018-01-27 15:00:00 12.6 13 Nordeste 32 Este 0 1011.9 -2.7 37
2018-01-27 14:00:00 13.1 12 Nordeste 34 Nordeste 0 1012.7 -2.1 37
2018-01-27 13:00:00 11.8 14 Nordeste 30 Nordeste 0 1013.6 -1.1 41
2018-01-27 12:00:00 9 2 Norte 10 Sudeste 0 1014.6 0.2 62
2018-01-27 11:00:00 6.7 0 Calma 9 Sudeste 0 1014.8 0.9 78
2018-01-27 10:00:00 2.6 0 Calma 8 Sudeste 0 1014.7 0.8 98
2018-01-27 09:00:00 0.2 2 Sur 6 Sur 0 1014.4 0.7 99
2018-01-27 08:00:00 -0.2 3 Sur 8 Sudeste 0 1013.9 0.6 99
2018-01-27 07:00:00 -0.1 4 Sudeste 6 Sudeste 0 1013.9 0.7 98
2018-01-27 06:00:00 0.3 0 Calma 8 Sudeste 0 1013.7 0.7 98
2018-01-27 05:00:00 0.2 2 Noroeste 11 Sudeste 0 1013.3 -0.1 97
2018-01-27 04:00:00 0.9 0 Calma 9 Sudeste 0 1013.2 -0.5 93
2018-01-27 03:00:00 1.8 0 Calma 11 Sudeste 0 1013 -0.8 92
2018-01-27 02:00:00 2.7 0 Calma 6 Sudeste 0 1013.4 -0.2 87
2018-01-27 01:00:00 3.7 0 Calma 9 Sudeste 0 1013.7 0.8 81
2018-01-27 00:00:00 3.9 0 Calma 7 Sudeste 0 1013.8 1.2 78
2018-01-26 23:00:00 5.7 3 Sudeste 14 Noroeste 0 1013.6 1.3 70
2018-01-26 22:00:00 7.2 12 Noroeste 21 Oeste 0 1012.9 0.8 65
2018-01-26 21:00:00 7.7 15 Oeste 18 Oeste 0 1012.6 1.2 63
2018-01-26 20:00:00 8.5 14 Noroeste 18 Noroeste 0 1012.3 1.5 60
2018-01-26 19:00:00 9.3 12 Noroeste 22 Noroeste 0 1012.1 1.3 55
2018-01-26 18:00:00 11.5 17 Noroeste 25 Noroeste 0 1011.4 0.3 49
2018-01-26 17:00:00 12.8 11 Noroeste 21 Norte 0 1010.8 -1 46
2018-01-26 16:00:00 12.6 13 Noroeste 24 Noroeste 0 1010.8 -1.7 49
2018-01-26 15:00:00 12 10 Noroeste 23 Noroeste 0 1011.1 -1.7 53
2018-01-26 14:00:00 11 11 Noroeste 24 Noroeste 0 1011.8 -0.5 56
2018-01-26 13:00:00 10.1 8 Noroeste 21 Oeste 0 1012.5 0.9 63
2018-01-26 12:00:00 9.3 11 Noroeste 20 Oeste 0 1012.8 1.8 65
2018-01-26 11:00:00 8.8 8 Oeste 19 Oeste 0 1012.3 1.9 76
2018-01-26 10:00:00 6.7 10 Oeste 18 Oeste 0 1011.6 1.9 85
2018-01-26 09:00:00 3.4 3 Sudeste 12 Sur 0 1011 2.3 94
2018-01-26 08:00:00 3.9 2 Oeste 13 Este 0 1010.4 2.1 91
2018-01-26 07:00:00 4 0 Calma 22 Oeste 0 1009.7 1.3 91
2018-01-26 06:00:00 4.3 12 Oeste 20 Sudoeste 0 1008.7 0.6 91
2018-01-26 05:00:00 4.8 11 Oeste 20 Oeste 0 1008.3 0.3 90
2018-01-26 04:00:00 5.5 13 Oeste 22 Oeste 0 1008.4 0.1 88
2018-01-26 03:00:00 6.1 14 Oeste 22 Oeste 0 1008.1 0 91
2018-01-26 02:00:00 6.5 15 Oeste 22 Oeste 0 1008 0.5 92
2018-01-26 01:00:00 7 9 Oeste 22 Oeste 0 1008.3 1.3 91
2018-01-26 00:00:00 8.3 16 Oeste 27 Oeste 0 1008.1 1.1 95
2018-01-25 23:00:00 9.3 17 Oeste 28 Oeste 0 1007.5 0.9 98
2018-01-25 22:00:00 9.9 11 Oeste 26 Oeste 0 1007 0.6 98
2018-01-25 21:00:00 10.5 17 Oeste 26 Oeste 1.1 1007 0.5 98
2018-01-25 20:00:00 10.5 14 Oeste 32 Oeste 0.5 1006.6 0.5 99
2018-01-25 19:00:00 10.5 18 Oeste 31 Oeste 0.6 1006.4 0.2 98
2018-01-25 18:00:00 10.9 14 Oeste 36 Oeste 0 1006.5 -0.1 92
2018-01-25 17:00:00 13.1 21 Oeste 41 Oeste 0 1006.1 -1.5 65
2018-01-25 16:00:00 14.2 26 Oeste 42 Oeste 0 1006.2 -2.8 65
2018-01-25 15:00:00 15 23 Sudoeste 49 Oeste 0 1006.6 -3.1 62
2018-01-25 14:00:00 15.4 19 Sudoeste 31 Oeste 0 1007.6 -1.9 65
2018-01-25 13:00:00 14.6 14 Oeste 27 Oeste 0 1009 -0.6 76
2018-01-25 12:00:00 13.1 13 Oeste 21 Oeste 0 1009.7 -0.1 81
2018-01-25 11:00:00 12 3 Sudeste 6 Sudeste 0 1009.5 -0.2 98
2018-01-25 10:00:00 9.9 0 Calma 4 Sudeste 0 1009.6 0.2 99
2018-01-25 09:00:00 9.3 0 Calma 3 Noroeste 0 1009.8 0.3 99
2018-01-25 08:00:00 9 0 Calma 2 Noroeste 0 1009.7 0.3 99
2018-01-25 07:00:00 8.6 0 Calma 3 Este 0 1009.4 -0.5 99
2018-01-25 06:00:00 8.6 0 Calma 5 Norte 0 1009.5 -0.5 99
2018-01-25 05:00:00 8 0 Calma 5 Este 0 1009.4 -1 99
2018-01-25 04:00:00 7.6 3 Sudeste 5 Sudeste 0 1009.9 -0.9 99
2018-01-25 03:00:00 7.5 0 Calma 7 Sur 0 1010 -0.9 99
2018-01-25 02:00:00 7.7 3 Este 6 Sur 0 1010.4 -0.4 99
2018-01-25 01:00:00 8.2 2 Sudeste 5 Sur 0 1010.8 0.4 97
2018-01-25 00:00:00 8.7 0 Calma 6 Sudeste 0 1010.9 0.5 94
2018-01-24 23:00:00 9.1 6 Sudeste 8 Sudeste 0 1010.8 0.5 92
2018-01-24 22:00:00 10.5 5 Este 18 Sudoeste 0 1010.4 0.4 84
2018-01-24 21:00:00 12.8 14 Sudoeste 19 Sudoeste 0 1010.4 0.7 76
2018-01-24 20:00:00 12.5 14 Sudoeste 17 Sudoeste 0 1010.3 0.7 71
2018-01-24 19:00:00 14.4 9 Oeste 15 Oeste 0 1010 0.3 65
2018-01-24 18:00:00 18.1 6 Oeste 9 Oeste 0 1009.7 -0.5 49
2018-01-24 17:00:00 20.7 0 Calma 6 Sudoeste 0 1009.6 -1.6 43
2018-01-24 16:00:00 20.1 0 Calma 9 Este 0 1009.7 -2.5 43
2018-01-24 15:00:00 19.2 2 Sudeste 7 Este 0 1010.2 -2.7 46
2018-01-24 14:00:00 18 0 Calma 6 Sudeste 0 1011.2 -1.8 48
2018-01-24 13:00:00 15.3 0 Calma 6 Este 0 1012.2 -0.7 62
2018-01-24 12:00:00 13.2 0 Calma 5 Este 0 1012.9 0.3 77
2018-01-24 11:00:00 9.4 0 Calma 4 Nordeste 0 1013 0.8 97
2018-01-24 10:00:00 5.9 0 Calma 3 Norte 0 1012.9 0.9 99
2018-01-24 09:00:00 2.8 0 Calma 2 Noroeste 0 1012.6 0.7 99
2018-01-24 08:00:00 2.6 0 Calma 4 Sur 0 1012.2 0.2 99
2018-01-24 07:00:00 3.3 3 Sudeste 4 Sur 0 1012 0 99
2018-01-24 06:00:00 4.3 0 Calma 10 Sudeste 0 1011.9 -0.4 99
2018-01-24 05:00:00 5.2 0 Calma 9 Sur 0 1012 -0.5 99
2018-01-24 04:00:00 5.8 4 Sudeste 7 Sudeste 0 1012 -0.5 99
2018-01-24 03:00:00 6.4 3 Sudeste 5 Sudeste 0 1012.3 -0.3 99
2018-01-24 02:00:00 7 3 Sudeste 9 Sudeste 0 1012.5 0 99
2018-01-24 01:00:00 6.9 2 Sur 7 Sur 0 1012.5 0.4 97
2018-01-24 00:00:00 7.7 5 Sudeste 6 Sudeste 0 1012.6 0.6 94
2018-01-23 23:00:00 8.5 0 Calma 6 Sudeste 0 1012.5 0.7 90
2018-01-23 22:00:00 9.8 2 Sudeste 4 Sudeste 0 1012.1 0.9 87
2018-01-23 21:00:00 11.3 0 Calma 17 Sudoeste 0 1012 1.3 80
2018-01-23 20:00:00 12.4 10 Sudoeste 15 Sudoeste 0 1011.8 1.2 72
2018-01-23 19:00:00 14.1 5 Sudoeste 8 Sudoeste 0 1011.2 0.8 62
2018-01-23 18:00:00 18.2 3 Oeste 6 Oeste 0 1010.7 0 49
2018-01-23 17:00:00 19.3 0 Calma 17 Noroeste 0 1010.6 -0.9 46
2018-01-23 16:00:00 18.6 2 Norte 9 Norte 0 1010.4 -2 49
2018-01-23 15:00:00 17.4 5 Norte 12 Norte 0 1010.7 -2.5 52
2018-01-23 14:00:00 16.1 3 Norte 11 Norte 0 1011.5 -2.1 57
2018-01-23 13:00:00 13.9 4 Norte 10 Norte 0 1012.4 -0.7 68
2018-01-23 12:00:00 11.5 3 Norte 7 Nordeste 0 1013.2 0.4 79
2018-01-23 11:00:00 8.6 3 Este 7 Norte 0 1013.6 1.2 87
2018-01-23 10:00:00 5.3 3 Norte 6 Norte 0 1013.1 1 99
2018-01-23 09:00:00 2.2 0 Calma 3 Norte 0 1012.8 0.7 99
2018-01-23 08:00:00 2.4 0 Calma 4 Norte 0 1012.4 0.3 99
2018-01-23 07:00:00 2.8 0 Calma 7 Noroeste 0 1012.1 -0.4 99
2018-01-23 06:00:00 2.5 0 Calma 4 Norte 0 1012.1 -0.5 99
2018-01-23 05:00:00 4 0 Calma 4 Noroeste 0 1012.1 -0.4 99
2018-01-23 04:00:00 4.7 0 Calma 5 Noroeste 0 1012.5 -0.3 99
2018-01-23 03:00:00 5.7 2 Noroeste 5 Norte 0 1012.6 -0.2 99
2018-01-23 02:00:00 6.2 2 Norte 10 Norte 0 1012.5 -0.2 99
2018-01-23 01:00:00 7 0 Calma 9 Noroeste 0 1012.8 0.2 92
2018-01-23 00:00:00 8.2 8 Norte 13 Noroeste 0 1012.8 0.4 92
2018-01-22 23:00:00 9.3 9 Noroeste 12 Noroeste 0 1012.7 0.6 89
2018-01-22 22:00:00 10.2 2 Norte 8 Noroeste 0 1012.6 0.8 84
2018-01-22 21:00:00 11 8 Noroeste 9 Noroeste 0 1012.4 0.8 79
2018-01-22 20:00:00 12.2 3 Noroeste 8 Noroeste 0 1012.1 0.7 70
2018-01-22 19:00:00 13.9 6 Noroeste 9 Noroeste 0 1011.8 0.2 62
2018-01-22 18:00:00 17.1 3 Noroeste 7 Noroeste 0 1011.6 -0.3 55
2018-01-22 17:00:00 18.2 2 Noroeste 8 Nordeste 0 1011.4 -1.5 50
2018-01-22 16:00:00 17.6 2 Norte 11 Norte 0 1011.6 -2.4 54
2018-01-22 15:00:00 16.9 4 Nordeste 14 Norte 0 1011.9 -3 58
2018-01-22 14:00:00 15 4 Nordeste 10 Nordeste 0 1012.9 -2.3 68
2018-01-22 13:00:00 12.7 4 Norte 10 Norte 0 1014 -1.2 78
2018-01-22 12:00:00 9.8 4 Norte 9 Norte 0 1014.9 0.1 94
2018-01-22 11:00:00 5.9 4 Norte 9 Norte 0.1 1015.2 0.8 99
2018-01-22 10:00:00 3.5 0 Calma 5 Sudeste 0 1015.2 1 99
2018-01-22 09:00:00 2.5 0 Calma 5 Noroeste 0 1014.8 0.8 99
2018-01-22 08:00:00 2.7 0 Calma 4 Sur 0 1014.4 0.1 99
2018-01-22 07:00:00 3.4 0 Calma 3 Sudeste 0 1014.2 -0.5 99
2018-01-22 06:00:00 3.3 0 Calma 4 Norte 0 1014 -0.7 99
2018-01-22 05:00:00 4.1 0 Calma 7 Sudeste 0 1014.3 -0.5 99
2018-01-22 04:00:00 5.1 4 Sur 6 Sur 0 1014.7 -0.8 99
2018-01-22 03:00:00 4.9 0 Calma 8 Sudeste 0 1014.7 -0.9 99
2018-01-22 02:00:00 6.1 3 Sur 6 Sudeste 0 1014.8 -0.7 98
2018-01-22 01:00:00 6.4 3 Sur 6 Sudeste 0 1015.5 0.1 96
2018-01-22 00:00:00 7.2 3 Sudeste 5 Sudeste 0 1015.6 0.2 92